Time;durP1;ratioP1;P1;durP2;ratioP2;P2;SDS_P1;SDS_P2;PMS_P1;PMS_P2;Temp;Humidity;BMP_temperature;BMP_pressure;BME280_temperature;BME280_humidity;BME280_pressure;Samples;Min_cycle;Max_cycle;Signal;HPM_P1;HPM_P2
2023/03/11 05:00:31;;;;;;;13.95;2.38;;;-1.80;99.90;;;;;;6265419;22;20977;-77
2023/03/11 05:02:57;;;;;;;5.28;1.40;;;-1.90;99.90;;;;;;6280382;22;20012;-76
2023/03/11 05:05:22;;;;;;;5.68;1.35;;;-1.80;99.90;;;;;;6307704;22;20030;-76
2023/03/11 05:07:48;;;;;;;3.75;1.33;;;-1.90;99.90;;;;;;6280511;22;20011;-77
2023/03/11 05:10:21;;;;;;;5.10;1.48;;;-1.90;99.90;;;;;;6254626;22;20015;-77
2023/03/11 05:12:50;;;;;;;6.65;2.10;;;-1.90;99.90;;;;;;6280217;22;20065;-76
2023/03/11 05:15:16;;;;;;;5.07;1.58;;;-1.90;99.90;;;;;;6282130;22;20047;-77
2023/03/11 05:17:42;;;;;;;6.55;1.75;;;-2.00;99.90;;;;;;6310031;22;20321;-77
2023/03/11 05:20:08;;;;;;;5.18;1.70;;;-2.00;99.90;;;;;;6309981;22;20007;-75
2023/03/11 05:22:34;;;;;;;9.38;1.83;;;-2.00;99.90;;;;;;6281954;22;20019;-76
2023/03/11 05:25:00;;;;;;;8.57;1.90;;;-2.00;99.90;;;;;;6281747;22;20336;-76
2023/03/11 05:27:25;;;;;;;8.20;2.03;;;-2.10;99.90;;;;;;6281924;22;20343;-76
2023/03/11 05:29:51;;;;;;;4.53;1.58;;;-2.00;99.90;;;;;;6310171;22;20074;-76
2023/03/11 05:32:18;;;;;;;3.58;1.50;;;-2.00;99.90;;;;;;6282125;22;20088;-76
2023/03/11 05:34:44;;;;;;;4.47;1.48;;;-2.00;99.90;;;;;;6309441;22;20022;-76
2023/03/11 05:37:10;;;;;;;6.43;1.52;;;-2.00;99.90;;;;;;6282341;22;20064;-76
2023/03/11 05:39:36;;;;;;;4.85;1.42;;;-2.00;99.90;;;;;;6282593;22;20359;-76
2023/03/11 05:42:03;;;;;;;9.98;1.80;;;-2.10;99.90;;;;;;6256395;22;20043;-76
2023/03/11 05:44:29;;;;;;;5.85;1.38;;;-2.10;99.90;;;;;;6256510;22;20011;-75
2023/03/11 05:46:54;;;;;;;6.97;1.63;;;-2.10;99.90;;;;;;6282105;22;20080;-77
2023/03/11 05:49:20;;;;;;;4.50;1.20;;;-2.10;99.90;;;;;;6283034;22;20019;-76
2023/03/11 05:51:47;;;;;;;7.55;1.48;;;-2.10;99.90;;;;;;6309148;22;20007;-75
2023/03/11 05:54:13;;;;;;;5.60;1.60;;;-2.10;99.90;;;;;;6281721;22;20078;-76
2023/03/11 05:56:44;;;;;;;8.73;1.30;;;-2.10;99.90;;;;;;6309873;22;20015;-77
2023/03/11 05:59:11;;;;;;;7.55;1.45;;;-2.10;99.90;;;;;;6283022;22;20087;-76
2023/03/11 06:01:37;;;;;;;5.18;1.42;;;-2.10;99.90;;;;;;6281864;22;20404;-76
2023/03/11 06:04:03;;;;;;;7.97;1.50;;;-2.10;99.90;;;;;;6282081;22;20022;-77
2023/03/11 06:06:28;;;;;;;5.95;1.45;;;-2.20;99.90;;;;;;6309999;22;20015;-76
2023/03/11 06:08:54;;;;;;;3.67;1.48;;;-2.10;99.90;;;;;;6309851;22;20016;-75
2023/03/11 06:11:20;;;;;;;8.73;2.13;;;-2.10;99.90;;;;;;6282027;22;20015;-76
2023/03/11 06:13:45;;;;;;;6.13;2.20;;;-2.10;99.90;;;;;;6281932;22;20466;-77
2023/03/11 06:16:11;;;;;;;7.10;2.63;;;-2.20;99.90;;;;;;6281673;22;20502;-76
2023/03/11 06:18:37;;;;;;;8.18;2.10;;;-2.10;99.90;;;;;;6281968;22;20011;-76
2023/03/11 06:21:03;;;;;;;5.88;2.10;;;-2.10;99.90;;;;;;6282239;22;20015;-76
2023/03/11 06:23:30;;;;;;;6.03;2.30;;;-2.10;99.90;;;;;;6281805;22;20012;-75
2023/03/11 06:26:03;;;;;;;10.20;2.30;;;-2.10;99.90;;;;;;6309152;22;20440;-76
2023/03/11 06:28:30;;;;;;;6.75;2.03;;;-2.00;99.90;;;;;;6281601;22;20038;-76
2023/03/11 06:30:57;;;;;;;7.18;1.65;;;-2.00;99.90;;;;;;6281825;22;20012;-76
2023/03/11 06:33:23;;;;;;;7.70;1.98;;;-1.90;99.90;;;;;;6282318;22;20039;-76
2023/03/11 06:36:00;;;;;;;6.63;1.60;;;-2.00;99.90;;;;;;6282471;22;20015;-76
2023/03/11 06:38:26;;;;;;;7.88;1.70;;;-1.90;99.90;;;;;;6309504;22;20026;-78
2023/03/11 06:40:52;;;;;;;6.13;1.60;;;-1.90;99.90;;;;;;6282300;22;20463;-76
2023/03/11 06:43:18;;;;;;;5.85;1.70;;;-1.90;99.90;;;;;;6281857;22;20433;-76
2023/03/11 06:45:44;;;;;;;3.67;1.30;;;-1.80;99.90;;;;;;6281391;22;20012;-77
2023/03/11 06:48:10;;;;;;;6.30;1.98;;;-1.80;99.90;;;;;;6280933;22;20054;-75
2023/03/11 06:50:36;;;;;;;5.90;1.92;;;-1.80;99.90;;;;;;6281532;22;20007;-76
2023/03/11 06:53:05;;;;;;;5.47;1.30;;;-1.80;99.90;;;;;;6281627;22;20015;-76
2023/03/11 06:55:31;;;;;;;17.58;2.58;;;-1.70;99.90;;;;;;6309131;22;20007;-76
2023/03/11 06:57:56;;;;;;;4.38;1.60;;;-1.80;99.90;;;;;;6308692;22;20462;-76
2023/03/11 07:00:22;;;;;;;8.45;1.45;;;-1.70;99.90;;;;;;6280679;22;20026;-77
2023/03/11 07:02:48;;;;;;;8.32;2.30;;;-1.70;99.90;;;;;;6309759;22;20095;-76
2023/03/11 07:05:14;;;;;;;8.82;2.38;;;-1.60;99.90;;;;;;6281056;22;20011;-76
2023/03/11 07:07:39;;;;;;;4.28;2.05;;;-1.60;99.90;;;;;;6308471;22;20003;-76
2023/03/11 07:10:06;;;;;;;5.35;1.80;;;-1.60;99.90;;;;;;6282026;22;20058;-76
2023/03/11 07:12:31;;;;;;;6.05;1.63;;;-1.50;99.90;;;;;;6280467;22;20049;-76
2023/03/11 07:14:58;;;;;;;7.50;2.10;;;-1.50;99.90;;;;;;6280977;22;20333;-76
2023/03/11 07:17:25;;;;;;;8.27;2.55;;;-1.40;99.90;;;;;;6280802;22;20413;-75
2023/03/11 07:19:50;;;;;;;7.40;2.97;;;-1.40;99.90;;;;;;6308071;22;20449;-76
2023/03/11 07:22:16;;;;;;;5.53;2.60;;;-1.40;99.90;;;;;;6280557;22;20011;-75
2023/03/11 07:24:47;;;;;;;13.85;3.28;;;-1.30;99.90;;;;;;6307935;22;20007;-76
2023/03/11 07:27:12;;;;;;;10.52;2.45;;;-1.20;99.90;;;;;;6308076;22;20334;-75
2023/03/11 07:29:38;;;;;;;7.97;2.40;;;-1.20;99.90;;;;;;6308414;22;20008;-77
2023/03/11 07:32:06;;;;;;;10.00;3.38;;;-1.20;99.90;;;;;;6308047;22;20074;-76
2023/03/11 07:34:32;;;;;;;9.57;3.25;;;-1.10;99.90;;;;;;6280533;22;20011;-76
2023/03/11 07:36:57;;;;;;;13.95;3.25;;;-1.10;99.90;;;;;;6307637;22;20004;-76
2023/03/11 07:39:23;;;;;;;9.60;3.22;;;-1.00;99.90;;;;;;6308610;22;20007;-76
2023/03/11 07:41:48;;;;;;;6.57;2.63;;;-0.90;99.90;;;;;;6280652;22;20467;-75
2023/03/11 07:44:15;;;;;;;9.00;2.35;;;-0.90;99.90;;;;;;6281088;22;20038;-75
2023/03/11 07:46:41;;;;;;;9.90;3.00;;;-0.80;99.90;;;;;;6280599;22;20015;-75
2023/03/11 07:49:07;;;;;;;9.63;2.72;;;-0.80;99.90;;;;;;6308692;22;20077;-76
2023/03/11 07:51:34;;;;;;;4.50;2.50;;;-0.70;99.90;;;;;;6280827;22;20023;-75
2023/03/11 07:54:01;;;;;;;14.63;3.70;;;-0.60;99.90;;;;;;6280582;22;20088;-76
2023/03/11 07:56:29;;;;;;;8.77;4.38;;;-0.60;99.90;;;;;;6280596;22;20042;-76
2023/03/11 07:58:58;;;;;;;13.05;4.20;;;-0.50;99.90;;;;;;6307750;22;20467;-76
2023/03/11 08:01:26;;;;;;;9.32;4.72;;;-0.50;99.90;;;;;;6307608;22;20022;-74
2023/03/11 08:03:57;;;;;;;11.20;4.55;;;-0.40;99.90;;;;;;6308379;22;20313;-76
2023/03/11 08:06:30;;;;;;;7.50;3.60;;;-0.40;99.90;;;;;;6308006;22;20003;-75
2023/03/11 08:08:56;;;;;;;5.85;2.60;;;-0.30;99.90;;;;;;6307575;22;20397;-75
2023/03/11 08:11:23;;;;;;;9.48;3.33;;;-0.20;99.90;;;;;;6308021;22;20003;-76
2023/03/11 08:13:49;;;;;;;3.67;2.25;;;-0.20;99.90;;;;;;6280690;22;20009;-75
2023/03/11 08:16:18;;;;;;;11.88;2.90;;;-0.20;99.90;;;;;;6280931;22;20022;-76
2023/03/11 08:18:46;;;;;;;7.72;2.20;;;-0.10;99.90;;;;;;6308084;22;20015;-75
2023/03/11 08:21:14;;;;;;;5.97;2.28;;;-0.10;99.90;;;;;;6280607;22;20015;-76
2023/03/11 08:23:40;;;;;;;16.67;2.33;;;0.00;99.90;;;;;;6308307;22;20046;-76
2023/03/11 08:26:08;;;;;;;6.68;1.83;;;0.00;99.90;;;;;;6307816;22;20484;-79
2023/03/11 08:28:34;;;;;;;5.28;1.77;;;0.10;99.90;;;;;;6308191;22;20018;-78
2023/03/11 08:30:59;;;;;;;4.00;1.40;;;0.10;99.90;;;;;;6307641;22;20455;-77
2023/03/11 08:33:26;;;;;;;8.00;1.67;;;0.20;99.90;;;;;;6308111;22;20011;-76
2023/03/11 08:35:52;;;;;;;4.88;1.50;;;0.20;99.90;;;;;;6280865;22;20373;-77
2023/03/11 08:38:18;;;;;;;10.65;1.80;;;0.30;99.90;;;;;;6281490;22;20016;-77
2023/03/11 08:40:44;;;;;;;5.15;1.98;;;0.30;99.90;;;;;;6308045;22;20019;-77
2023/03/11 08:43:14;;;;;;;8.88;2.22;;;0.40;99.90;;;;;;6253571;22;20026;-78
2023/03/11 08:45:41;;;;;;;5.97;1.70;;;0.40;99.90;;;;;;6280346;22;20022;-77
2023/03/11 08:48:09;;;;;;;8.52;1.63;;;0.40;99.90;;;;;;6279422;22;20011;-76
2023/03/11 08:50:35;;;;;;;5.93;1.67;;;0.40;99.90;;;;;;6282179;22;20022;-77
2023/03/11 08:53:02;;;;;;;7.20;1.50;;;0.50;99.90;;;;;;6282159;22;20094;-76
2023/03/11 08:55:28;;;;;;;5.75;1.85;;;0.60;99.90;;;;;;6256634;22;20015;-75
2023/03/11 08:57:54;;;;;;;9.85;2.00;;;0.60;99.90;;;;;;6309535;22;20011;-76
2023/03/11 09:00:20;;;;;;;7.20;1.50;;;0.70;99.90;;;;;;6281658;22;20069;-75
2023/03/11 09:02:46;;;;;;;5.18;1.30;;;0.90;99.90;;;;;;6281735;22;20094;-75
2023/03/11 09:05:12;;;;;;;6.15;1.40;;;1.70;99.90;;;;;;6309288;22;20037;-75
2023/03/11 09:07:38;;;;;;;12.43;1.77;;;2.60;99.90;;;;;;6309006;22;20007;-76
2023/03/11 09:10:05;;;;;;;7.07;2.22;;;3.20;99.90;;;;;;6282033;22;20019;-76
2023/03/11 09:12:31;;;;;;;6.63;2.05;;;3.80;99.90;;;;;;6309188;22;20069;-76
2023/03/11 09:14:56;;;;;;;7.38;1.70;;;4.30;99.90;;;;;;6256084;22;20424;-75
2023/03/11 09:17:22;;;;;;;8.93;1.50;;;4.50;99.90;;;;;;6256240;22;20012;-76
2023/03/11 09:19:48;;;;;;;4.40;1.67;;;4.70;99.90;;;;;;6308954;22;20014;-76
2023/03/11 09:22:13;;;;;;;4.57;1.50;;;4.60;99.90;;;;;;6309036;22;20014;-76
2023/03/11 09:24:39;;;;;;;8.13;1.65;;;4.50;99.90;;;;;;6280890;22;20096;-76
2023/03/11 09:27:05;;;;;;;7.50;1.50;;;4.60;99.90;;;;;;6256058;22;20030;-77
2023/03/11 09:29:31;;;;;;;6.82;1.65;;;4.90;99.90;;;;;;6281536;22;20022;-75
2023/03/11 09:31:57;;;;;;;6.28;1.80;;;5.10;99.90;;;;;;6309101;22;20007;-74
2023/03/11 09:34:23;;;;;;;6.32;1.83;;;5.30;99.90;;;;;;6308692;22;20041;-75
2023/03/11 09:36:48;;;;;;;6.50;1.80;;;5.20;99.90;;;;;;6309170;22;20007;-76
2023/03/11 09:39:14;;;;;;;11.40;3.15;;;5.30;99.90;;;;;;6309033;22;20068;-77
2023/03/11 09:41:49;;;;;;;9.30;2.05;;;5.30;99.90;;;;;;6281976;22;20094;-76
2023/03/11 09:44:31;;;;;;;7.97;1.90;;;5.30;99.90;;;;;;6282023;22;20113;-77
2023/03/11 09:47:32;;;;;;;5.72;2.30;;;5.20;99.90;;;;;;6281906;22;20443;-77
2023/03/11 09:50:29;;;;;;;5.32;1.52;;;5.00;99.90;;;;;;6257025;22;20429;-76
2023/03/11 09:53:22;;;;;;;6.85;1.90;;;5.00;99.90;;;;;;6281379;22;20011;-76
2023/03/11 09:56:09;;;;;;;7.57;1.90;;;4.90;99.90;;;;;;6281309;22;20012;-79
2023/03/11 09:58:40;;;;;;;7.03;1.85;;;4.80;99.90;;;;;;6308524;22;20018;-77
2023/03/11 10:01:26;;;;;;;6.38;2.20;;;4.70;99.90;;;;;;6275758;22;20019;-79
2023/03/11 10:03:55;;;;;;;12.05;1.90;;;4.70;99.90;;;;;;6276209;22;20116;-78
2023/03/11 10:06:28;;;;;;;4.38;2.20;;;4.80;99.90;;;;;;6275964;22;20019;-78
2023/03/11 10:09:10;;;;;;;9.00;1.70;;;4.90;99.90;;;;;;6278105;22;20060;-78
2023/03/11 10:11:50;;;;;;;15.93;6.15;;;4.80;99.90;;;;;;6278076;22;20043;-78
2023/03/11 10:14:26;;;;;;;8.77;3.53;;;4.80;99.90;;;;;;6276398;22;20019;-77
2023/03/11 10:17:07;;;;;;;6.45;1.20;;;4.80;99.90;;;;;;6278341;22;20018;-78
2023/03/11 10:19:49;;;;;;;6.10;1.10;;;4.90;99.90;;;;;;6278826;22;20479;-77
2023/03/11 10:22:18;;;;;;;4.90;1.30;;;4.90;99.90;;;;;;6276032;22;20015;-77
2023/03/11 10:25:12;;;;;;;5.80;1.42;;;4.80;99.90;;;;;;6278293;22;20437;-77
2023/03/11 10:27:50;;;;;;;6.57;1.30;;;4.70;99.90;;;;;;6275995;22;20077;-77
2023/03/11 10:30:30;;;;;;;3.00;1.02;;;4.80;99.90;;;;;;6277846;22;20034;-79
2023/03/11 10:33:07;;;;;;;4.30;1.10;;;4.70;99.90;;;;;;6250711;22;20022;-75
2023/03/11 10:35:40;;;;;;;4.03;1.40;;;4.70;99.90;;;;;;6277431;22;20425;-78
2023/03/11 10:38:41;;;;;;;7.55;1.55;;;4.70;99.90;;;;;;6275822;22;20039;-78
2023/03/11 10:41:27;;;;;;;6.63;2.30;;;4.70;99.90;;;;;;6270891;22;20083;-79
2023/03/11 10:44:04;;;;;;;4.30;1.20;;;4.70;99.90;;;;;;6277315;22;20011;-80
2023/03/11 10:46:30;;;;;;;6.10;1.40;;;4.60;99.90;;;;;;6277934;22;20303;-79
2023/03/11 10:48:56;;;;;;;4.53;1.30;;;4.60;99.90;;;;;;6277613;22;20022;-79
2023/03/11 10:51:32;;;;;;;6.35;1.30;;;4.70;99.90;;;;;;6277039;22;20012;-79
2023/03/11 10:54:00;;;;;;;5.40;1.42;;;4.60;99.90;;;;;;6250106;22;20008;-83
2023/03/11 10:56:34;;;;;;;4.25;1.10;;;4.70;99.90;;;;;;6250281;22;20073;-81
2023/03/11 10:59:02;;;;;;;7.00;1.50;;;4.60;99.90;;;;;;6276796;22;20019;-80
2023/03/11 11:01:28;;;;;;;7.38;1.25;;;4.70;99.90;;;;;;6292874;22;20367;-79
2023/03/11 11:03:56;;;;;;;5.13;1.77;;;4.80;99.90;;;;;;6280795;22;20015;-78
2023/03/11 11:06:31;;;;;;;10.85;2.40;;;4.80;99.90;;;;;;6308009;22;20007;-78
2023/03/11 11:09:18;;;;;;;12.23;1.33;;;4.90;99.90;;;;;;6308408;22;20047;-77
2023/03/11 11:12:00;;;;;;;5.40;1.30;;;4.80;99.90;;;;;;6307671;22;20015;-77
2023/03/11 11:14:40;;;;;;;4.90;1.20;;;4.70;99.90;;;;;;6280754;22;20064;-77
2023/03/11 11:17:17;;;;;;;8.73;1.42;;;4.80;99.90;;;;;;6255197;22;20015;-76
2023/03/11 11:19:45;;;;;;;6.18;1.17;;;4.80;99.90;;;;;;6308231;22;20019;-78
2023/03/11 11:22:16;;;;;;;9.85;1.38;;;4.80;99.90;;;;;;6280351;22;20015;-77
2023/03/11 11:24:47;;;;;;;3.80;1.42;;;4.90;99.90;;;;;;6280773;22;20454;-78
2023/03/11 11:27:19;;;;;;;4.97;1.15;;;5.00;99.90;;;;;;6280262;22;20011;-77
2023/03/11 11:29:45;;;;;;;4.65;1.10;;;5.10;99.90;;;;;;6280458;22;20023;-76
2023/03/11 11:32:14;;;;;;;4.50;1.20;;;5.10;99.90;;;;;;6280453;22;20011;-77
2023/03/11 11:34:40;;;;;;;9.80;1.00;;;5.10;99.90;;;;;;6255301;22;20042;-78
2023/03/11 11:37:11;;;;;;;7.75;1.35;;;5.20;99.90;;;;;;6280341;22;20329;-77
2023/03/11 11:39:52;;;;;;;4.93;0.80;;;5.20;99.90;;;;;;6280630;22;20018;-78
2023/03/11 11:42:22;;;;;;;9.55;1.33;;;5.30;99.90;;;;;;6280413;22;20090;-78
2023/03/11 11:44:51;;;;;;;5.10;1.50;;;5.30;99.90;;;;;;6280280;22;20015;-79
2023/03/11 11:47:22;;;;;;;7.32;1.10;;;5.30;99.90;;;;;;6280338;22;20494;-78
2023/03/11 11:49:54;;;;;;;5.82;1.40;;;5.30;99.90;;;;;;6280274;22;20091;-78
2023/03/11 11:52:54;;;;;;;3.45;0.80;;;5.50;99.90;;;;;;6308073;22;20007;-77
2023/03/11 11:55:24;;;;;;;4.07;1.25;;;5.50;99.90;;;;;;6263972;22;20011;-79
2023/03/11 11:57:50;;;;;;;11.27;1.65;;;5.60;99.90;;;;;;6280339;22;20037;-81
2023/03/11 12:00:41;;;;;;;7.05;1.30;;;5.70;99.90;;;;;;6254749;22;20019;-78
2023/03/11 12:03:45;;;;;;;7.53;1.30;;;5.70;99.90;;;;;;6277752;22;20343;-77
2023/03/11 12:06:37;;;;;;;5.25;1.17;;;5.80;99.90;;;;;;6248747;22;20093;-77
2023/03/11 12:09:28;;;;;;;4.20;0.85;;;5.80;99.90;;;;;;6218898;22;20012;-79
2023/03/11 12:12:12;;;;;;;6.47;1.00;;;6.00;99.90;;;;;;6250189;22;20015;-79
2023/03/11 12:15:07;;;;;;;5.03;0.90;;;6.00;99.90;;;;;;6249685;22;20014;-77
2023/03/11 12:17:37;;;;;;;4.70;0.80;;;6.00;99.90;;;;;;6203799;22;20011;-79
2023/03/11 12:20:15;;;;;;;6.38;1.13;;;6.00;99.90;;;;;;6277151;22;20086;-78
2023/03/11 12:22:47;;;;;;;4.55;0.82;;;5.90;99.90;;;;;;6224143;22;20016;-77
2023/03/11 12:25:31;;;;;;;5.43;1.10;;;5.80;99.90;;;;;;6224291;22;20456;-79
2023/03/11 12:28:15;;;;;;;9.75;1.85;;;5.90;99.90;;;;;;6250067;22;20023;-78
2023/03/11 12:30:52;;;;;;;7.95;2.03;;;5.80;99.90;;;;;;6249489;22;20012;-80
2023/03/11 12:33:36;;;;;;;8.15;2.53;;;5.80;99.90;;;;;;6277649;22;20008;-77
2023/03/11 12:36:04;;;;;;;6.18;1.15;;;5.80;99.90;;;;;;6225041;22;20345;-82
2023/03/11 12:38:33;;;;;;;9.15;1.95;;;5.70;99.90;;;;;;6249636;22;20016;-80
2023/03/11 12:41:13;;;;;;;7.95;2.28;;;5.80;99.90;;;;;;6249538;22;20382;-81
2023/03/11 12:43:39;;;;;;;7.50;2.30;;;5.70;99.90;;;;;;6249288;22;20016;-80
2023/03/11 12:46:09;;;;;;;6.85;2.47;;;5.60;99.90;;;;;;6222334;22;20012;-80
2023/03/11 12:48:49;;;;;;;5.30;1.33;;;5.50;99.90;;;;;;6275563;22;20159;-81
2023/03/11 12:51:33;;;;;;;5.00;1.83;;;5.50;99.90;;;;;;6249701;22;20437;-80
2023/03/11 12:54:20;;;;;;;4.43;1.30;;;5.50;99.90;;;;;;6248935;22;20345;-82
2023/03/11 12:57:03;;;;;;;6.75;1.45;;;5.70;99.90;;;;;;6276083;22;20353;-80
2023/03/11 13:00:06;;;;;;;8.43;2.83;;;5.90;99.90;;;;;;6276335;22;20016;-80
2023/03/11 13:03:01;;;;;;;6.28;1.65;;;6.40;99.90;;;;;;6247358;22;20081;-79
2023/03/11 13:05:49;;;;;;;6.88;1.33;;;6.80;99.90;;;;;;6249434;22;20016;-79
2023/03/11 13:08:20;;;;;;;4.85;1.10;;;7.10;99.90;;;;;;6276735;22;20030;-80
2023/03/11 13:10:47;;;;;;;6.80;2.40;;;7.40;99.90;;;;;;6275399;22;20134;-80
2023/03/11 13:13:40;;;;;;;2.47;1.10;;;7.60;99.90;;;;;;6275087;22;20030;-78
2023/03/11 13:16:11;;;;;;;3.72;1.20;;;7.60;99.90;;;;;;6249291;22;20035;-81
2023/03/11 13:18:39;;;;;;;4.30;0.80;;;7.40;99.90;;;;;;6275023;22;20016;-77
2023/03/11 13:21:28;;;;;;;4.47;1.00;;;7.20;99.90;;;;;;6274844;22;20016;-77
2023/03/11 13:24:24;;;;;;;6.53;2.00;;;7.20;99.90;;;;;;6275329;22;20312;-81
2023/03/11 13:27:00;;;;;;;2.92;1.27;;;7.20;99.90;;;;;;6275646;22;20019;-80
2023/03/11 13:29:51;;;;;;;2.08;1.10;;;7.10;99.90;;;;;;6249937;22;20015;-81
2023/03/11 13:32:52;;;;;;;7.22;1.58;;;7.00;99.90;;;;;;6277060;22;20034;-78
2023/03/11 13:35:26;;;;;;;4.07;0.75;;;7.00;99.90;;;;;;6276332;22;20050;-80
2023/03/11 13:38:15;;;;;;;5.15;1.30;;;7.00;99.90;;;;;;6279591;22;20125;-81
2023/03/11 13:40:45;;;;;;;5.15;0.85;;;7.30;99.90;;;;;;6251360;22;20012;-78
2023/03/11 13:43:29;;;;;;;3.72;1.00;;;7.40;99.90;;;;;;6277755;22;20090;-82
2023/03/11 13:46:10;;;;;;;6.50;2.63;;;7.20;99.90;;;;;;6276967;22;20445;-79
2023/03/11 13:48:43;;;;;;;6.82;1.98;;;7.00;99.90;;;;;;6277134;22;20066;-79
2023/03/11 13:51:41;;;;;;;6.75;1.02;;;6.80;99.90;;;;;;6276974;22;20030;-78
2023/03/11 13:54:19;;;;;;;5.47;1.13;;;6.80;99.90;;;;;;6277512;22;20464;-79
2023/03/11 13:56:49;;;;;;;5.95;1.10;;;6.90;99.90;;;;;;6251299;22;20011;-79
2023/03/11 13:59:22;;;;;;;6.35;0.90;;;7.00;99.90;;;;;;6276656;22;20022;-79
2023/03/11 14:02:18;;;;;;;7.57;1.10;;;6.80;99.90;;;;;;6275728;22;20012;-78
2023/03/11 14:05:01;;;;;;;4.82;1.20;;;7.00;99.90;;;;;;6248667;22;20015;-78
2023/03/11 14:07:29;;;;;;;6.18;1.85;;;7.00;99.90;;;;;;6277774;22;20018;-81
2023/03/11 14:10:10;;;;;;;4.05;1.50;;;7.10;99.90;;;;;;6276569;22;20019;-78
2023/03/11 14:12:36;;;;;;;5.95;1.40;;;7.30;99.90;;;;;;6276714;22;20018;-78
2023/03/11 14:15:06;;;;;;;6.70;1.40;;;7.30;99.90;;;;;;6276790;22;20065;-84
2023/03/11 14:17:35;;;;;;;5.13;1.10;;;7.70;99.90;;;;;;6252433;22;20012;-83
2023/03/11 14:20:03;;;;;;;7.95;1.63;;;7.50;99.90;;;;;;6276403;22;20043;-77
2023/03/11 14:22:30;;;;;;;4.10;0.80;;;7.40;99.90;;;;;;6276447;22;20019;-79
2023/03/11 14:24:59;;;;;;;4.05;1.20;;;7.20;99.90;;;;;;6277262;22;20016;-76
2023/03/11 14:27:24;;;;;;;5.65;1.02;;;6.80;99.90;;;;;;6277153;22;20069;-78
2023/03/11 14:29:50;;;;;;;5.15;1.10;;;6.40;99.90;;;;;;6277675;22;20020;-76
2023/03/11 14:32:31;;;;;;;4.70;1.20;;;6.20;99.90;;;;;;6284687;22;20019;-72
2023/03/11 14:35:19;;;;;;;6.55;1.70;;;6.00;99.90;;;;;;6288242;22;20501;-75
2023/03/11 14:37:44;;;;;;;6.20;1.70;;;5.70;99.90;;;;;;6276694;22;20007;-82
2023/03/11 14:40:30;;;;;;;7.10;1.30;;;5.70;99.90;;;;;;6276546;22;20015;-83
2023/03/11 14:43:05;;;;;;;4.65;1.75;;;5.60;99.90;;;;;;6277320;22;20512;-77
2023/03/11 14:45:36;;;;;;;4.35;1.10;;;5.50;99.90;;;;;;6276979;22;20011;-76
2023/03/11 14:48:18;;;;;;;4.25;1.38;;;5.50;99.90;;;;;;6276286;22;20011;-78
2023/03/11 14:50:48;;;;;;;3.50;0.82;;;5.40;99.90;;;;;;6276726;22;20315;-80
2023/03/11 14:53:28;;;;;;;2.60;0.90;;;5.40;99.90;;;;;;6251103;22;20448;-80
2023/03/11 14:56:07;;;;;;;3.28;1.10;;;5.40;99.90;;;;;;6278267;22;20096;-78
2023/03/11 14:58:43;;;;;;;8.05;1.30;;;5.30;99.90;;;;;;6278560;22;20026;-77
2023/03/11 15:01:25;;;;;;;3.92;1.48;;;5.30;99.90;;;;;;6288958;22;20014;-78
2023/03/11 15:04:00;;;;;;;5.10;1.45;;;5.30;99.90;;;;;;6281373;22;20022;-78
2023/03/11 15:06:28;;;;;;;4.05;1.20;;;5.20;99.90;;;;;;6255936;22;20082;-80
2023/03/11 15:09:02;;;;;;;8.52;1.30;;;5.20;99.90;;;;;;6281268;22;20219;-79
2023/03/11 15:11:28;;;;;;;7.63;1.00;;;5.10;99.90;;;;;;6281332;22;20506;-79
2023/03/11 15:14:08;;;;;;;7.35;2.38;;;5.10;99.90;;;;;;6281355;22;20023;-79
2023/03/11 15:16:36;;;;;;;3.70;1.02;;;5.00;99.90;;;;;;6281955;22;20310;-80
2023/03/11 15:19:30;;;;;;;3.85;1.30;;;4.90;99.90;;;;;;6281075;22;20033;-79
2023/03/11 15:21:59;;;;;;;5.68;1.63;;;4.50;99.90;;;;;;6282298;22;20019;-79
2023/03/11 15:24:32;;;;;;;4.07;1.33;;;4.10;99.90;;;;;;6281423;22;20352;-78
2023/03/11 15:27:21;;;;;;;2.67;0.93;;;3.70;99.90;;;;;;6281422;22;20022;-79
2023/03/11 15:29:54;;;;;;;9.43;1.73;;;3.40;99.90;;;;;;6281312;22;20022;-78
2023/03/11 15:32:25;;;;;;;4.18;1.38;;;3.20;99.90;;;;;;6280952;22;20013;-79
2023/03/11 15:35:13;;;;;;;1.65;0.80;;;3.20;99.90;;;;;;6281328;22;20015;-80
2023/03/11 15:37:40;;;;;;;3.45;1.88;;;3.20;99.90;;;;;;6255789;22;20444;-79
2023/03/11 15:40:29;;;;;;;14.70;3.88;;;3.30;99.90;;;;;;6281316;22;20465;-79
2023/03/11 15:43:13;;;;;;;8.40;4.95;;;3.30;99.90;;;;;;6256123;22;20015;-77
2023/03/11 15:45:40;;;;;;;15.95;9.77;;;3.40;99.90;;;;;;6256808;22;20297;-77
2023/03/11 15:48:08;;;;;;;22.02;13.93;;;3.50;99.90;;;;;;6280733;22;20019;-78
2023/03/11 15:50:34;;;;;;;19.70;11.07;;;3.50;99.90;;;;;;6255160;22;20022;-79
2023/03/11 15:53:01;;;;;;;26.48;16.95;;;3.60;99.90;;;;;;6280916;22;20034;-79
2023/03/11 15:55:27;;;;;;;10.38;5.07;;;3.50;99.90;;;;;;6281661;22;20011;-78
2023/03/11 15:58:00;;;;;;;3.08;1.73;;;3.50;99.90;;;;;;6256462;22;20011;-80
2023/03/11 16:00:25;;;;;;;4.30;1.58;;;3.50;99.90;;;;;;6255144;22;20016;-78
2023/03/11 16:02:53;;;;;;;4.28;1.20;;;3.60;99.90;;;;;;6308861;22;20134;-78
2023/03/11 16:05:21;;;;;;;9.98;1.27;;;3.50;99.90;;;;;;6255386;22;20019;-78
2023/03/11 16:07:47;;;;;;;1.98;0.77;;;3.40;99.90;;;;;;6256060;22;20019;-78
2023/03/11 16:10:16;;;;;;;6.22;1.83;;;3.40;99.90;;;;;;6255622;22;20015;-79
2023/03/11 16:12:42;;;;;;;5.68;1.50;;;3.40;99.90;;;;;;6255875;22;20043;-79
2023/03/11 16:15:25;;;;;;;3.17;1.30;;;3.40;99.90;;;;;;6255719;22;20018;-78
2023/03/11 16:17:52;;;;;;;6.97;1.45;;;3.40;99.90;;;;;;6256109;22;20043;-78
2023/03/11 16:20:19;;;;;;;3.70;1.75;;;3.50;99.90;;;;;;6255560;22;20015;-77
2023/03/11 16:22:46;;;;;;;4.45;1.55;;;3.50;99.90;;;;;;6254865;22;20022;-79
2023/03/11 16:25:29;;;;;;;4.43;1.42;;;3.50;99.90;;;;;;6280044;22;20436;-76
2023/03/11 16:27:56;;;;;;;4.65;1.30;;;3.60;99.90;;;;;;6307997;22;20030;-78
2023/03/11 16:30:22;;;;;;;3.75;1.30;;;3.60;99.90;;;;;;6280016;22;20043;-78
2023/03/11 16:32:48;;;;;;;5.93;1.35;;;3.60;99.90;;;;;;6280812;22;20090;-79
2023/03/11 16:35:14;;;;;;;3.67;1.17;;;3.60;99.90;;;;;;6280628;22;20043;-79
2023/03/11 16:37:41;;;;;;;4.93;1.50;;;3.50;99.90;;;;;;6255147;22;20011;-79
2023/03/11 16:40:10;;;;;;;4.53;1.20;;;3.50;99.90;;;;;;6307952;22;20011;-77
2023/03/11 16:42:36;;;;;;;3.70;1.20;;;3.40;99.90;;;;;;6308030;22;20015;-78
2023/03/11 16:45:03;;;;;;;2.70;1.15;;;3.30;99.90;;;;;;6308036;22;20011;-78
2023/03/11 16:47:29;;;;;;;7.93;1.55;;;3.30;99.90;;;;;;6254979;22;20104;-79
2023/03/11 16:49:55;;;;;;;2.83;1.20;;;3.20;99.90;;;;;;6255212;22;20046;-80
2023/03/11 16:52:22;;;;;;;6.03;1.70;;;3.20;99.90;;;;;;6255321;22;20018;-78
2023/03/11 16:54:48;;;;;;;5.40;1.90;;;3.20;99.90;;;;;;6280838;22;20007;-80
2023/03/11 16:57:14;;;;;;;4.82;2.10;;;3.20;99.90;;;;;;6255024;22;20011;-78
2023/03/11 16:59:41;;;;;;;5.70;1.60;;;3.10;99.90;;;;;;6255060;22;20015;-79
2023/03/11 17:04:42;;;;;;;5.88;1.25;;;3.10;99.90;;;;;;6317471;22;20019;-79
2023/03/11 17:07:08;;;;;;;5.57;1.30;;;3.10;99.90;;;;;;6317025;22;20484;-79
2023/03/11 17:09:34;;;;;;;2.15;0.80;;;3.10;99.90;;;;;;6343233;22;20014;-79
2023/03/11 17:12:01;;;;;;;7.30;1.70;;;3.10;99.90;;;;;;6345031;22;20010;-78
2023/03/11 17:14:28;;;;;;;6.57;1.90;;;3.10;99.90;;;;;;6373638;22;20017;-78
2023/03/11 17:16:53;;;;;;;5.00;1.70;;;3.10;99.90;;;;;;6318808;22;20055;-80
2023/03/11 17:19:19;;;;;;;7.70;3.00;;;3.10;99.90;;;;;;6372814;22;20014;-78
2023/03/11 17:21:45;;;;;;;9.63;2.85;;;3.10;99.90;;;;;;6343949;22;20324;-79
2023/03/11 17:24:11;;;;;;;6.05;1.10;;;3.10;99.90;;;;;;6372703;22;20075;-77
2023/03/11 17:26:36;;;;;;;3.85;1.10;;;3.10;99.90;;;;;;6318911;22;20118;-77
2023/03/11 17:29:03;;;;;;;4.20;1.08;;;3.10;99.90;;;;;;6319899;22;20017;-77
2023/03/11 17:31:28;;;;;;;1.73;0.77;;;3.00;99.90;;;;;;6344916;22;20067;-78
2023/03/11 17:33:58;;;;;;;3.90;0.80;;;3.00;99.90;;;;;;6344706;22;20014;-78
2023/03/11 17:36:24;;;;;;;6.30;1.88;;;3.00;99.90;;;;;;6345023;22;20010;-80
2023/03/11 17:38:52;;;;;;;7.90;1.58;;;2.90;99.90;;;;;;6372977;22;20416;-77
2023/03/11 17:41:18;;;;;;;5.53;1.80;;;2.90;99.90;;;;;;6372693;22;20071;-79
2023/03/11 17:43:44;;;;;;;7.82;2.22;;;2.90;99.90;;;;;;6344761;22;20006;-78
2023/03/11 17:46:13;;;;;;;4.38;1.80;;;2.90;99.90;;;;;;6373098;22;20082;-77
2023/03/11 17:48:39;;;;;;;4.70;1.58;;;2.90;99.90;;;;;;6372358;22;20113;-78
2023/03/11 17:51:13;;;;;;;5.20;1.65;;;2.90;99.90;;;;;;6344386;22;20098;-78
2023/03/11 17:53:41;;;;;;;4.32;1.35;;;2.80;99.90;;;;;;6373308;22;20013;-77
2023/03/11 17:56:07;;;;;;;5.55;2.00;;;2.80;99.90;;;;;;6344358;22;20014;-80
2023/03/11 17:58:33;;;;;;;3.95;1.90;;;2.70;99.90;;;;;;6372619;22;20051;-78
2023/03/11 18:01:04;;;;;;;5.13;1.92;;;2.70;99.90;;;;;;6372745;22;20021;-77
2023/03/11 18:03:29;;;;;;;5.80;2.10;;;2.60;99.90;;;;;;6344325;22;20147;-77
2023/03/11 18:06:03;;;;;;;4.85;1.90;;;2.60;99.90;;;;;;6344000;22;20038;-76
2023/03/11 18:08:29;;;;;;;4.82;1.85;;;2.60;99.90;;;;;;6343871;22;20037;-76
2023/03/11 18:10:59;;;;;;;3.63;1.35;;;2.50;99.90;;;;;;6344684;22;20020;-78
2023/03/11 18:13:24;;;;;;;5.13;1.92;;;2.50;99.90;;;;;;6372765;22;20021;-79
2023/03/11 18:16:03;;;;;;;3.05;1.30;;;2.50;99.90;;;;;;6344420;22;20038;-78
2023/03/11 18:18:30;;;;;;;5.68;1.58;;;2.40;99.90;;;;;;6344303;22;20085;-78